Time;durP1;ratioP1;P1;durP2;ratioP2;P2;SDS_P1;SDS_P2;PMS_P1;PMS_P2;Temp;Humidity;BMP_temperature;BMP_pressure;BME280_temperature;BME280_humidity;BME280_pressure;Samples;Min_cycle;Max_cycle;Signal;HPM_P1;HPM_P2
2021/12/16 19:15:15;;;;;;;;;;;;;;;;;;4976074;28;69947;-36
2021/12/16 19:24:11;;;;;;;10.90;4.90;;;;;;;21.90;58.26;103904.75;4977556;28;20432;-44
2021/12/16 19:26:37;;;;;;;10.27;4.95;;;;;;;21.96;57.38;103898.25;4982015;28;20068;-41
2021/12/16 19:39:31;;;;;;;;;;;;;;;23.54;52.00;103877.88;5096603;27;19950;-34
2021/12/16 19:44:07;;;;;;;10.25;5.32;;;;;;;23.88;53.83;103897.53;4986132;27;20401;-38
2021/12/16 19:49:59;;;;;;;11.77;4.68;;;;;;;23.49;53.28;103896.03;5021325;27;1242652;-38
2021/12/16 19:52:25;;;;;;;8.88;4.80;;;;;;;23.29;54.13;103911.38;5094575;27;61822;-38
2021/12/16 19:56:12;;;;;;;7.15;4.13;;;;;;;23.07;54.05;103919.66;4992893;28;20828;-37
2021/12/16 19:58:39;;;;;;;9.07;4.90;;;;;;;22.96;54.84;103924.72;4971329;28;20468;-37
2021/12/16 20:01:22;;;;;;;16.08;7.00;;;;;;;22.81;55.87;103943.28;4982843;28;20062;-39
2021/12/16 20:03:53;;;;;;;14.15;6.28;;;;;;;22.68;56.20;103939.47;4972420;28;20039;-41
2021/12/16 20:06:20;;;;;;;12.73;6.03;;;;;;;22.58;56.87;103948.91;4981801;28;20628;-38
2021/12/16 20:08:47;;;;;;;13.35;6.22;;;;;;;22.47;57.43;103954.81;4982061;28;20679;-36
2021/12/16 20:11:30;;;;;;;12.23;6.10;;;;;;;22.37;58.08;103962.38;4986199;28;20034;-37
2021/12/16 20:13:57;;;;;;;11.73;6.15;;;;;;;22.32;58.29;103967.09;4999017;28;20042;-37
2021/12/16 20:16:43;;;;;;;12.20;6.05;;;;;;;22.27;58.11;103969.97;4999502;28;20448;-37
2021/12/16 20:19:09;;;;;;;14.88;6.35;;;;;;;22.23;58.51;103974.59;4995628;28;20033;-38
2021/12/16 20:21:39;;;;;;;11.25;6.38;;;;;;;22.20;58.07;103965.84;4997137;28;20034;-38
2021/12/16 20:24:08;;;;;;;13.23;6.50;;;;;;;22.16;58.34;103967.81;4998264;28;20305;-37
2021/12/16 20:26:41;;;;;;;9.73;5.80;;;;;;;22.15;58.50;103965.22;4982525;28;20043;-35
2021/12/16 20:29:11;;;;;;;;;;;;;;;22.12;58.52;103960.84;4990321;28;20063;-35
2021/12/16 20:31:43;;;;;;;13.45;5.97;;;;;;;22.09;58.32;103966.34;5024324;28;19925;-38
2021/12/16 20:34:14;;;;;;;12.93;6.10;;;;;;;22.08;58.18;103964.63;4980711;28;20110;-37
2021/12/16 20:36:45;;;;;;;10.73;5.75;;;;;;;22.04;58.70;103969.25;4986908;28;20070;-37
2021/12/16 20:39:26;;;;;;;16.70;5.93;;;;;;;22.02;58.90;103971.13;4992928;28;20142;-40
2021/12/16 20:41:57;;;;;;;15.48;6.50;;;;;;;21.98;58.87;103972.19;4990621;28;20108;-41
2021/12/16 20:44:26;;;;;;;22.63;6.53;;;;;;;21.94;58.78;103967.91;4990721;28;20057;-42
2021/12/16 20:46:55;;;;;;;14.63;6.47;;;;;;;21.92;58.55;103965.31;4995271;28;20527;-38
2021/12/16 20:49:26;;;;;;;13.82;6.95;;;;;;;21.92;58.19;103968.00;4990083;28;20478;-37
2021/12/16 20:51:57;;;;;;;12.40;6.38;;;;;;;21.91;57.83;103968.94;5001443;28;20617;-42
2021/12/16 20:54:26;;;;;;;13.55;6.90;;;;;;;21.88;58.16;103974.41;4988629;28;20135;-38
2021/12/16 20:56:53;;;;;;;13.02;7.10;;;;;;;21.84;58.19;103971.94;4999422;28;20126;-38
2021/12/16 20:59:34;;;;;;;17.88;7.07;;;;;;;21.80;58.01;103970.34;4982067;28;20043;-40
2021/12/16 21:02:05;;;;;;;11.85;7.22;;;;;;;21.79;58.01;103969.47;4991136;28;20408;-37
2021/12/16 21:04:32;;;;;;;13.57;6.88;;;;;;;21.75;57.59;103979.44;4997700;28;20080;-38
2021/12/16 21:07:00;;;;;;;12.60;6.97;;;;;;;21.73;57.58;103975.97;4974695;28;20043;-39
2021/12/16 21:09:28;;;;;;;13.98;6.70;;;;;;;21.71;57.54;103977.88;4967316;28;20557;-37
2021/12/16 21:11:54;;;;;;;16.27;6.93;;;;;;;21.69;57.36;103985.09;4976212;28;20043;-37
2021/12/16 21:14:21;;;;;;;13.20;7.05;;;;;;;21.69;57.40;103982.41;4977112;28;20508;-37
2021/12/16 21:16:48;;;;;;;11.82;6.88;;;;;;;21.69;57.50;103984.19;4981473;28;20459;-37
2021/12/16 21:19:15;;;;;;;14.80;6.88;;;;;;;21.70;57.77;103988.63;4984144;28;20035;-36
2021/12/16 21:21:41;;;;;;;14.00;7.43;;;;;;;21.72;58.06;103986.75;4984477;28;20122;-34
2021/12/16 21:24:08;;;;;;;14.18;7.85;;;;;;;21.74;58.00;103993.78;4986976;28;20093;-36
2021/12/16 21:26:35;;;;;;;17.63;8.15;;;;;;;21.76;58.37;103985.69;4986069;28;20133;-36
2021/12/16 21:29:00;;;;;;;14.27;7.53;;;;;;;21.77;58.21;103988.28;4973071;28;20050;-38
2021/12/16 21:31:26;;;;;;;15.80;7.53;;;;;;;21.79;58.26;103990.88;4984868;28;20046;-40
2021/12/16 21:33:55;;;;;;;18.98;7.90;;;;;;;21.83;57.60;103986.28;4968513;28;20402;-37
2021/12/16 21:36:26;;;;;;;14.10;7.50;;;;;;;21.85;56.92;103984.38;4970804;28;20042;-40
2021/12/16 21:38:53;;;;;;;16.20;7.75;;;;;;;21.86;57.34;103979.00;4972988;28;20477;-37
2021/12/16 21:41:21;;;;;;;17.50;7.70;;;;;;;21.87;58.10;103987.88;4974045;28;20441;-37
2021/12/16 21:43:47;;;;;;;13.57;7.13;;;;;;;21.86;58.41;103986.13;4966971;28;20291;-42
2021/12/16 21:46:14;;;;;;;14.35;7.07;;;;;;;21.86;58.60;103986.13;4963259;28;20120;-40
2021/12/16 21:50:41;;;;;;;24.85;14.35;;;;;;;17.82;53.03;103961.31;5052712;27;20471;-76
2021/12/16 21:53:07;;;;;;;26.58;14.02;;;;;;;15.41;58.80;104000.13;5032451;28;20518;-77
2021/12/16 21:55:34;;;;;;;26.40;14.68;;;;;;;12.78;68.53;104044.22;5043765;28;20041;-78
2021/12/16 21:58:17;;;;;;;28.13;13.77;;;;;;;10.87;77.39;104093.34;5033946;28;20843;-77
2021/12/16 22:00:44;;;;;;;27.65;13.13;;;;;;;10.15;79.61;104099.00;5006112;28;20574;-78
2021/12/16 22:03:14;;;;;;;27.08;13.30;;;;;;;9.52;82.58;104112.44;5023910;28;20068;-77
2021/12/16 22:05:41;;;;;;;32.42;12.93;;;;;;;9.23;84.01;104110.38;5030101;28;20446;-77
2021/12/16 22:08:08;;;;;;;30.17;13.65;;;;;;;8.89;84.60;104104.72;5043531;28;20110;-78
2021/12/16 22:10:35;;;;;;;28.35;12.82;;;;;;;8.62;87.21;104096.50;5031996;28;20068;-78
2021/12/16 22:13:01;;;;;;;31.67;12.68;;;;;;;8.30;91.46;104093.34;5024721;28;20042;-76
2021/12/16 22:15:28;;;;;;;33.50;13.15;;;;;;;8.16;91.85;104098.38;5040407;28;20099;-77
2021/12/16 22:17:57;;;;;;;29.70;12.32;;;;;;;8.04;92.50;104091.22;5031120;28;20033;-78
2021/12/16 22:20:25;;;;;;;24.23;10.63;;;;;;;7.82;95.07;104101.31;5018898;28;20034;-77
2021/12/16 22:22:53;;;;;;;28.58;10.73;;;;;;;7.75;94.46;104102.03;5026220;28;20037;-79
2021/12/16 22:25:19;;;;;;;30.08;11.75;;;;;;;7.60;97.32;104114.88;5026224;28;20038;-78
2021/12/16 22:27:45;;;;;;;35.70;13.35;;;;;;;7.63;97.07;104112.28;5025910;28;20049;-79
2021/12/16 22:30:11;;;;;;;32.40;11.32;;;;;;;7.58;97.74;104107.88;5026009;28;20128;-79
2021/12/16 22:32:38;;;;;;;32.63;12.50;;;;;;;7.56;97.47;104103.44;5032556;28;20052;-79
2021/12/16 22:35:07;;;;;;;29.30;11.05;;;;;;;7.54;98.81;104103.41;5039960;28;20042;-78
2021/12/16 22:37:33;;;;;;;33.90;12.35;;;;;;;7.53;98.86;104106.88;5027235;28;20493;-80
2021/12/16 22:39:58;;;;;;;32.63;11.55;;;;;;;7.38;99.37;104115.31;5026705;28;20132;-79
2021/12/16 22:42:24;;;;;;;30.80;11.68;;;;;;;7.40;99.51;104108.38;5026455;28;20124;-79
2021/12/16 22:44:49;;;;;;;31.95;10.73;;;;;;;7.43;99.54;104104.94;5024357;28;20486;-79
2021/12/16 22:47:15;;;;;;;37.10;11.65;;;;;;;7.41;99.33;104104.94;5024987;28;20041;-78
2021/12/16 22:49:42;;;;;;;33.50;11.48;;;;;;;7.52;98.67;104106.88;5025918;28;20045;-80
2021/12/16 22:52:09;;;;;;;37.10;12.63;;;;;;;7.48;99.29;104116.41;5025268;28;20038;-80
2021/12/16 22:54:35;;;;;;;36.13;11.90;;;;;;;7.47;99.55;104109.41;5025666;28;20399;-78
2021/12/16 22:57:04;;;;;;;28.92;11.02;;;;;;;7.47;100.00;104112.00;5024714;28;20042;-78
2021/12/16 22:59:29;;;;;;;36.80;12.00;;;;;;;7.48;99.62;104115.50;5025866;28;20045;-78
2021/12/16 23:01:58;;;;;;;30.67;11.20;;;;;;;7.49;99.54;104114.66;5012184;28;20060;-78
2021/12/16 23:04:25;;;;;;;31.90;11.48;;;;;;;7.43;99.63;104105.84;5012742;28;20034;-78
2021/12/16 23:06:51;;;;;;;30.55;11.13;;;;;;;7.38;100.00;104115.31;5011144;28;20048;-78
2021/12/16 23:09:19;;;;;;;32.25;11.25;;;;;;;7.44;99.93;104111.94;5012130;28;20038;-79
2021/12/16 23:11:46;;;;;;;31.02;10.95;;;;;;;7.42;100.00;104109.31;4993196;28;20042;-79
2021/12/16 23:25:01;;;;;;;36.97;11.70;;;;;;;7.40;100.00;104099.66;4992034;28;20057;-76
2021/12/16 23:27:26;;;;;;;32.75;11.05;;;;;;;7.41;100.00;104099.69;4998583;28;20037;-78
2021/12/16 23:29:52;;;;;;;35.08;10.43;;;;;;;7.56;100.00;104100.81;5012611;28;20042;-78
2021/12/16 23:32:17;;;;;;;29.63;9.68;;;;;;;7.36;100.00;104105.69;5011286;28;20065;-77
2021/12/16 23:34:43;;;;;;;30.08;10.20;;;;;;;7.36;100.00;104103.06;5012353;28;20030;-77
2021/12/16 23:37:08;;;;;;;34.55;10.95;;;;;;;7.40;100.00;104105.78;5010764;28;20474;-77
2021/12/16 23:39:36;;;;;;;29.25;10.32;;;;;;;7.44;100.00;104109.31;5012347;28;20061;-79
2021/12/16 23:55:11;;;;;;;35.25;10.50;;;;;;;7.58;100.00;104106.97;5030796;28;20498;-78
2021/12/16 23:57:37;;;;;;;35.25;10.85;;;;;;;7.64;100.00;104103.59;5024304;28;20121;-76
